sensor_id;sensor_type;location;lat;lon;timestamp;pressure;altitude;pressure_sealevel;temperature;humidity
73821;BME280;62150;43.582;1.456;2023-04-10T04:32:29;100418.28;;;14.32;100.00
73821;BME280;62150;43.582;1.456;2023-04-10T04:34:56;100422.63;;;14.66;100.00
73821;BME280;62150;43.582;1.456;2023-04-10T04:37:27;100412.13;;;14.69;100.00
73821;BME280;62150;43.582;1.456;2023-04-10T04:39:54;100414.34;;;14.93;98.82
73821;BME280;62150;43.582;1.456;2023-04-10T04:42:22;100423.53;;;14.98;96.13
73821;BME280;62150;43.582;1.456;2023-04-10T04:44:49;100434.31;;;14.73;100.00
73821;BME280;62150;43.582;1.456;2023-04-10T04:47:17;100435.31;;;14.71;100.00
73821;BME280;62150;43.582;1.456;2023-04-10T04:49:46;100429.66;;;15.13;97.37
73821;BME280;62150;43.582;1.456;2023-04-10T04:52:13;100436.94;;;15.22;93.65
73821;BME280;62150;43.582;1.456;2023-04-10T04:54:41;100432.88;;;15.01;100.00
73821;BME280;62150;43.582;1.456;2023-04-10T04:57:09;100436.59;;;15.28;93.28
73821;BME280;62150;43.582;1.456;2023-04-10T04:59:36;100444.78;;;15.36;92.99
73821;BME280;62150;43.582;1.456;2023-04-10T05:02:04;100444.03;;;15.34;92.40
73821;BME280;62150;43.582;1.456;2023-04-10T05:04:31;100443.22;;;14.68;100.00
73821;BME280;62150;43.582;1.456;2023-04-10T05:07:00;100443.28;;;15.32;94.34
73821;BME280;62150;43.582;1.456;2023-04-10T05:09:28;100452.38;;;14.91;100.00
73821;BME280;62150;43.582;1.456;2023-04-10T05:11:55;100449.63;;;14.78;100.00
73821;BME280;62150;43.582;1.456;2023-04-10T05:14:23;100451.81;;;14.34;100.00
73821;BME280;62150;43.582;1.456;2023-04-10T05:16:51;100453.41;;;14.71;100.00
73821;BME280;62150;43.582;1.456;2023-04-10T05:19:19;100455.84;;;14.74;100.00
73821;BME280;62150;43.582;1.456;2023-04-10T05:21:46;100453.94;;;15.11;97.44
73821;BME280;62150;43.582;1.456;2023-04-10T05:24:15;100449.88;;;15.22;97.05
73821;BME280;62150;43.582;1.456;2023-04-10T05:26:43;100456.53;;;15.11;99.38
73821;BME280;62150;43.582;1.456;2023-04-10T05:29:10;100459.03;;;15.28;94.64
73821;BME280;62150;43.582;1.456;2023-04-10T05:31:38;100470.34;;;14.94;100.00
73821;BME280;62150;43.582;1.456;2023-04-10T05:34:05;100460.63;;;15.30;100.00
73821;BME280;62150;43.582;1.456;2023-04-10T05:36:33;100466.50;;;15.34;98.72
73821;BME280;62150;43.582;1.456;2023-04-10T05:39:01;100470.63;;;15.69;92.49
73821;BME280;62150;43.582;1.456;2023-04-10T05:41:30;100474.00;;;15.23;100.00
73821;BME280;62150;43.582;1.456;2023-04-10T05:43:58;100471.72;;;15.65;96.86
73821;BME280;62150;43.582;1.456;2023-04-10T05:46:25;100460.94;;;15.73;95.91
73821;BME280;62150;43.582;1.456;2023-04-10T05:48:53;100466.44;;;15.67;98.79
73821;BME280;62150;43.582;1.456;2023-04-10T05:51:20;100479.84;;;15.26;100.00
73821;BME280;62150;43.582;1.456;2023-04-10T05:53:49;100471.00;;;15.30;100.00
73821;BME280;62150;43.582;1.456;2023-04-10T05:56:16;100471.69;;;15.50;100.00
73821;BME280;62150;43.582;1.456;2023-04-10T05:58:45;100464.03;;;15.64;100.00
73821;BME280;62150;43.582;1.456;2023-04-10T06:01:13;100466.03;;;15.74;96.21
73821;BME280;62150;43.582;1.456;2023-04-10T06:03:40;100474.47;;;15.78;97.64
73821;BME280;62150;43.582;1.456;2023-04-10T06:06:08;100473.19;;;15.38;100.00
73821;BME280;62150;43.582;1.456;2023-04-10T06:08:35;100486.84;;;15.73;100.00
73821;BME280;62150;43.582;1.456;2023-04-10T06:11:03;100497.69;;;15.64;97.93
73821;BME280;62150;43.582;1.456;2023-04-10T06:13:30;100498.88;;;15.74;95.38
73821;BME280;62150;43.582;1.456;2023-04-10T06:16:00;100497.25;;;15.56;97.66
73821;BME280;62150;43.582;1.456;2023-04-10T06:18:27;100502.63;;;15.20;100.00
73821;BME280;62150;43.582;1.456;2023-04-10T06:20:54;100496.72;;;15.18;100.00
73821;BME280;62150;43.582;1.456;2023-04-10T06:23:23;100504.91;;;15.59;100.00
73821;BME280;62150;43.582;1.456;2023-04-10T06:25:50;100504.06;;;15.74;99.99
73821;BME280;62150;43.582;1.456;2023-04-10T06:28:18;100507.13;;;15.96;97.45
73821;BME280;62150;43.582;1.456;2023-04-10T06:30:45;100506.44;;;16.08;95.63
73821;BME280;62150;43.582;1.456;2023-04-10T06:33:14;100510.72;;;16.09;92.11
73821;BME280;62150;43.582;1.456;2023-04-10T06:35:42;100514.13;;;16.26;94.64
73821;BME280;62150;43.582;1.456;2023-04-10T06:38:09;100514.00;;;16.43;91.95
73821;BME280;62150;43.582;1.456;2023-04-10T06:40:37;100517.72;;;16.53;98.31
73821;BME280;62150;43.582;1.456;2023-04-10T06:43:04;100528.56;;;16.75;93.38
73821;BME280;62150;43.582;1.456;2023-04-10T06:45:32;100523.06;;;16.66;92.49
73821;BME280;62150;43.582;1.456;2023-04-10T06:47:59;100530.41;;;16.73;93.48
73821;BME280;62150;43.582;1.456;2023-04-10T06:50:28;100526.78;;;16.46;99.41
73821;BME280;62150;43.582;1.456;2023-04-10T06:52:57;100536.09;;;16.34;100.00
73821;BME280;62150;43.582;1.456;2023-04-10T06:55:25;100540.91;;;16.56;99.52
73821;BME280;62150;43.582;1.456;2023-04-10T06:57:52;100543.16;;;16.17;100.00
73821;BME280;62150;43.582;1.456;2023-04-10T07:00:22;100556.13;;;15.85;100.00
73821;BME280;62150;43.582;1.456;2023-04-10T07:02:49;100555.06;;;16.35;99.75
73821;BME280;62150;43.582;1.456;2023-04-10T07:05:17;100549.84;;;16.66;99.84
73821;BME280;62150;43.582;1.456;2023-04-10T07:07:45;100536.16;;;16.79;93.90
73821;BME280;62150;43.582;1.456;2023-04-10T07:10:16;100537.66;;;16.53;99.41
73821;BME280;62150;43.582;1.456;2023-04-10T07:12:44;100523.72;;;16.69;98.54
73821;BME280;62150;43.582;1.456;2023-04-10T07:15:11;100538.66;;;16.50;99.64
73821;BME280;62150;43.582;1.456;2023-04-10T07:17:39;100539.66;;;16.48;100.00
73821;BME280;62150;43.582;1.456;2023-04-10T07:20:07;100539.59;;;16.79;97.29
73821;BME280;62150;43.582;1.456;2023-04-10T07:22:35;100548.91;;;16.97;97.74
73821;BME280;62150;43.582;1.456;2023-04-10T07:25:04;100554.09;;;16.22;100.00
73821;BME280;62150;43.582;1.456;2023-04-10T07:27:32;100570.50;;;16.22;100.00
73821;BME280;62150;43.582;1.456;2023-04-10T07:29:59;100564.78;;;16.77;100.00
73821;BME280;62150;43.582;1.456;2023-04-10T07:32:27;100577.69;;;16.79;100.00
73821;BME280;62150;43.582;1.456;2023-04-10T07:34:54;100580.25;;;16.33;100.00
73821;BME280;62150;43.582;1.456;2023-04-10T07:37:22;100575.16;;;16.31;100.00
73821;BME280;62150;43.582;1.456;2023-04-10T07:39:49;100585.34;;;16.96;100.00
73821;BME280;62150;43.582;1.456;2023-04-10T07:42:18;100583.66;;;16.49;100.00
73821;BME280;62150;43.582;1.456;2023-04-10T07:44:45;100578.81;;;16.89;100.00
73821;BME280;62150;43.582;1.456;2023-04-10T07:47:13;100576.06;;;16.92;100.00
73821;BME280;62150;43.582;1.456;2023-04-10T07:49:40;100578.59;;;16.78;100.00
73821;BME280;62150;43.582;1.456;2023-04-10T07:52:08;100580.38;;;17.64;100.00
73821;BME280;62150;43.582;1.456;2023-04-10T07:54:35;100583.84;;;17.06;100.00
73821;BME280;62150;43.582;1.456;2023-04-10T07:57:03;100586.50;;;17.49;100.00
73821;BME280;62150;43.582;1.456;2023-04-10T07:59:33;100597.84;;;16.89;100.00
73821;BME280;62150;43.582;1.456;2023-04-10T08:02:01;100593.34;;;17.21;100.00
73821;BME280;62150;43.582;1.456;2023-04-10T08:04:28;100603.56;;;17.53;100.00
73821;BME280;62150;43.582;1.456;2023-04-10T08:06:56;100600.38;;;17.19;100.00
73821;BME280;62150;43.582;1.456;2023-04-10T08:09:23;100615.28;;;16.71;100.00
73821;BME280;62150;43.582;1.456;2023-04-10T08:11:51;100609.16;;;17.75;100.00
73821;BME280;62150;43.582;1.456;2023-04-10T08:14:18;100616.00;;;17.76;100.00
73821;BME280;62150;43.582;1.456;2023-04-10T08:16:47;100622.31;;;16.99;100.00
73821;BME280;62150;43.582;1.456;2023-04-10T08:19:14;100625.09;;;17.69;100.00
73821;BME280;62150;43.582;1.456;2023-04-10T08:21:42;100636.38;;;17.25;100.00
73821;BME280;62150;43.582;1.456;2023-04-10T08:24:09;100641.59;;;17.39;100.00
73821;BME280;62150;43.582;1.456;2023-04-10T08:26:37;100644.03;;;17.71;100.00
73821;BME280;62150;43.582;1.456;2023-04-10T08:29:05;100644.22;;;17.68;100.00
73821;BME280;62150;43.582;1.456;2023-04-10T08:31:32;100643.66;;;17.63;100.00
73821;BME280;62150;43.582;1.456;2023-04-10T08:34:02;100643.63;;;18.34;100.00
73821;BME280;62150;43.582;1.456;2023-04-10T08:36:30;100644.59;;;17.90;100.00
73821;BME280;62150;43.582;1.456;2023-04-10T08:38:57;100650.88;;;18.29;100.00
73821;BME280;62150;43.582;1.456;2023-04-10T08:41:25;100651.91;;;18.80;100.00
73821;BME280;62150;43.582;1.456;2023-04-10T08:43:52;100653.22;;;18.60;100.00
73821;BME280;62150;43.582;1.456;2023-04-10T08:46:22;100650.53;;;18.48;100.00
73821;BME280;62150;43.582;1.456;2023-04-10T08:48:54;100649.28;;;18.26;100.00
73821;BME280;62150;43.582;1.456;2023-04-10T08:51:30;100644.38;;;19.15;100.00
73821;BME280;62150;43.582;1.456;2023-04-10T08:54:04;100653.22;;;18.46;100.00
73821;BME280;62150;43.582;1.456;2023-04-10T08:56:34;100646.44;;;19.62;100.00
73821;BME280;62150;43.582;1.456;2023-04-10T08:59:03;100648.09;;;18.86;100.00
73821;BME280;62150;43.582;1.456;2023-04-10T09:01:32;100640.91;;;18.89;100.00
73821;BME280;62150;43.582;1.456;2023-04-10T09:04:01;100643.44;;;18.64;100.00
73821;BME280;62150;43.582;1.456;2023-04-10T09:06:30;100645.28;;;19.54;100.00
73821;BME280;62150;43.582;1.456;2023-04-10T09:08:57;100638.69;;;19.86;100.00
73821;BME280;62150;43.582;1.456;2023-04-10T09:11:55;100640.81;;;18.91;100.00
73821;BME280;62150;43.582;1.456;2023-04-10T09:14:26;100641.38;;;18.69;100.00
73821;BME280;62150;43.582;1.456;2023-04-10T09:17:14;100646.94;;;19.67;100.00
73821;BME280;62150;43.582;1.456;2023-04-10T09:19:42;100646.31;;;19.64;100.00
73821;BME280;62150;43.582;1.456;2023-04-10T09:22:12;100650.13;;;18.54;100.00
73821;BME280;62150;43.582;1.456;2023-04-10T09:24:43;100640.75;;;20.06;98.87
73821;BME280;62150;43.582;1.456;2023-04-10T09:27:26;100641.44;;;19.72;100.00
73821;BME280;62150;43.582;1.456;2023-04-10T09:29:53;100650.22;;;20.07;100.00
73821;BME280;62150;43.582;1.456;2023-04-10T09:32:36;100646.91;;;20.42;97.23
73821;BME280;62150;43.582;1.456;2023-04-10T09:35:05;100655.47;;;19.95;100.00
73821;BME280;62150;43.582;1.456;2023-04-10T09:37:36;100652.75;;;20.33;97.10
73821;BME280;62150;43.582;1.456;2023-04-10T09:40:05;100663.41;;;19.55;100.00
73821;BME280;62150;43.582;1.456;2023-04-10T09:42:34;100671.16;;;20.19;99.35
73821;BME280;62150;43.582;1.456;2023-04-10T09:45:03;100666.25;;;19.65;100.00
73821;BME280;62150;43.582;1.456;2023-04-10T09:47:31;100676.63;;;20.03;100.00
73821;BME280;62150;43.582;1.456;2023-04-10T09:50:00;100661.84;;;20.27;100.00
73821;BME280;62150;43.582;1.456;2023-04-10T09:52:28;100667.97;;;20.02;100.00
73821;BME280;62150;43.582;1.456;2023-04-10T09:54:58;100662.91;;;19.63;100.00
73821;BME280;62150;43.582;1.456;2023-04-10T09:57:27;100654.13;;;20.62;98.18
73821;BME280;62150;43.582;1.456;2023-04-10T09:59:57;100658.56;;;20.49;95.15
73821;BME280;62150;43.582;1.456;2023-04-10T10:02:27;100654.09;;;20.75;94.09
73821;BME280;62150;43.582;1.456;2023-04-10T10:04:55;100652.88;;;21.14;87.98
73821;BME280;62150;43.582;1.456;2023-04-10T10:07:25;100656.88;;;20.12;97.57
73821;BME280;62150;43.582;1.456;2023-04-10T10:09:53;100647.13;;;20.26;96.40
73821;BME280;62150;43.582;1.456;2023-04-10T10:12:34;100650.88;;;19.86;100.00
73821;BME280;62150;43.582;1.456;2023-04-10T10:15:11;100642.31;;;20.33;98.60
73821;BME280;62150;43.582;1.456;2023-04-10T10:17:52;100642.66;;;21.00;93.91
73821;BME280;62150;43.582;1.456;2023-04-10T10:20:26;100656.19;;;20.10;98.48
73821;BME280;62150;43.582;1.456;2023-04-10T10:22:54;100645.59;;;20.95;94.07
73821;BME280;62150;43.582;1.456;2023-04-10T10:25:24;100643.25;;;20.68;95.50
73821;BME280;62150;43.582;1.456;2023-04-10T10:27:54;100634.34;;;21.63;87.59
73821;BME280;62150;43.582;1.456;2023-04-10T10:30:22;100635.22;;;20.35;92.61
73821;BME280;62150;43.582;1.456;2023-04-10T10:32:50;100642.44;;;20.31;97.04
73821;BME280;62150;43.582;1.456;2023-04-10T10:35:18;100646.28;;;21.21;91.63
73821;BME280;62150;43.582;1.456;2023-04-10T10:37:46;100640.75;;;21.37;89.76
73821;BME280;62150;43.582;1.456;2023-04-10T10:40:18;100640.66;;;21.15;93.15
73821;BME280;62150;43.582;1.456;2023-04-10T10:42:56;100644.28;;;21.25;91.60
73821;BME280;62150;43.582;1.456;2023-04-10T10:45:32;100648.94;;;21.88;86.65
73821;BME280;62150;43.582;1.456;2023-04-10T10:48:00;100654.50;;;20.93;92.09
73821;BME280;62150;43.582;1.456;2023-04-10T10:50:50;100657.19;;;20.56;98.25
73821;BME280;62150;43.582;1.456;2023-04-10T10:53:31;100657.75;;;22.21;85.68
73821;BME280;62150;43.582;1.456;2023-04-10T10:56:00;100652.50;;;21.98;87.21
73821;BME280;62150;43.582;1.456;2023-04-10T10:58:50;100648.22;;;21.86;86.02
73821;BME280;62150;43.582;1.456;2023-04-10T11:01:19;100639.69;;;22.06;81.44
73821;BME280;62150;43.582;1.456;2023-04-10T11:03:48;100632.81;;;22.05;85.46
73821;BME280;62150;43.582;1.456;2023-04-10T11:06:17;100633.25;;;21.99;82.48
73821;BME280;62150;43.582;1.456;2023-04-10T11:08:46;100635.78;;;20.51;95.29
73821;BME280;62150;43.582;1.456;2023-04-10T11:11:18;100618.81;;;20.69;93.17
73821;BME280;62150;43.582;1.456;2023-04-10T11:14:12;100610.81;;;21.63;87.01
73821;BME280;62150;43.582;1.456;2023-04-10T11:16:46;100602.47;;;22.03;83.67
73821;BME280;62150;43.582;1.456;2023-04-10T11:19:14;100612.97;;;21.47;85.30
73821;BME280;62150;43.582;1.456;2023-04-10T11:22:04;100615.44;;;21.60;85.47
73821;BME280;62150;43.582;1.456;2023-04-10T11:24:55;100619.19;;;20.87;87.80
73821;BME280;62150;43.582;1.456;2023-04-10T11:27:40;100623.41;;;21.01;89.43
73821;BME280;62150;43.582;1.456;2023-04-10T11:30:30;100615.19;;;21.85;85.24
73821;BME280;62150;43.582;1.456;2023-04-10T11:32:59;100606.34;;;21.19;87.26
73821;BME280;62150;43.582;1.456;2023-04-10T11:35:27;100602.59;;;22.45;80.23
73821;BME280;62150;43.582;1.456;2023-04-10T11:38:23;100605.91;;;20.31;98.20
73821;BME280;62150;43.582;1.456;2023-04-10T11:41:01;100605.94;;;21.81;87.43
73821;BME280;62150;43.582;1.456;2023-04-10T11:43:30;100604.34;;;21.90;79.56
73821;BME280;62150;43.582;1.456;2023-04-10T11:46:03;100602.34;;;21.26;85.32
73821;BME280;62150;43.582;1.456;2023-04-10T11:48:31;100597.13;;;22.48;76.69
73821;BME280;62150;43.582;1.456;2023-04-10T11:51:05;100587.28;;;22.29;77.64
73821;BME280;62150;43.582;1.456;2023-04-10T11:53:33;100595.47;;;21.36;88.27
73821;BME280;62150;43.582;1.456;2023-04-10T11:56:01;100579.59;;;23.01;73.69
73821;BME280;62150;43.582;1.456;2023-04-10T11:58:29;100581.09;;;21.76;81.43
73821;BME280;62150;43.582;1.456;2023-04-10T12:01:03;100581.91;;;22.42;67.74
73821;BME280;62150;43.582;1.456;2023-04-10T12:03:34;100585.97;;;22.34;72.94
73821;BME280;62150;43.582;1.456;2023-04-10T12:06:03;100580.34;;;22.50;72.70
73821;BME280;62150;43.582;1.456;2023-04-10T12:08:31;100577.41;;;22.32;72.92
73821;BME280;62150;43.582;1.456;2023-04-10T12:10:59;100577.38;;;22.96;70.71
73821;BME280;62150;43.582;1.456;2023-04-10T12:13:27;100578.56;;;24.24;61.45
73821;BME280;62150;43.582;1.456;2023-04-10T12:15:57;100576.34;;;24.87;57.12
73821;BME280;62150;43.582;1.456;2023-04-10T12:18:28;100578.72;;;22.59;71.91
73821;BME280;62150;43.582;1.456;2023-04-10T12:20:56;100574.13;;;22.51;72.31
73821;BME280;62150;43.582;1.456;2023-04-10T12:23:26;100580.91;;;21.99;75.93
73821;BME280;62150;43.582;1.456;2023-04-10T12:26:09;100587.34;;;21.95;78.30
73821;BME280;62150;43.582;1.456;2023-04-10T12:28:39;100592.28;;;22.64;74.12
73821;BME280;62150;43.582;1.456;2023-04-10T12:31:07;100600.47;;;22.70;72.44
73821;BME280;62150;43.582;1.456;2023-04-10T12:33:37;100596.22;;;23.11;71.91
73821;BME280;62150;43.582;1.456;2023-04-10T12:36:18;100595.94;;;23.56;69.64
73821;BME280;62150;43.582;1.456;2023-04-10T12:38:46;100586.66;;;22.68;75.17
73821;BME280;62150;43.582;1.456;2023-04-10T12:41:13;100581.69;;;23.58;72.04
73821;BME280;62150;43.582;1.456;2023-04-10T12:43:47;100573.66;;;23.20;69.44
73821;BME280;62150;43.582;1.456;2023-04-10T12:46:23;100559.34;;;24.62;60.20
73821;BME280;62150;43.582;1.456;2023-04-10T12:48:53;100562.94;;;24.61;57.81
73821;BME280;62150;43.582;1.456;2023-04-10T12:51:42;100571.03;;;23.90;61.50
73821;BME280;62150;43.582;1.456;2023-04-10T12:54:10;100578.97;;;23.39;66.20
73821;BME280;62150;43.582;1.456;2023-04-10T12:56:42;100567.94;;;24.35;59.56
73821;BME280;62150;43.582;1.456;2023-04-10T12:59:10;100579.38;;;23.65;64.89
73821;BME280;62150;43.582;1.456;2023-04-10T13:01:38;100575.88;;;24.04;60.80
73821;BME280;62150;43.582;1.456;2023-04-10T13:04:08;100578.03;;;23.70;64.44
73821;BME280;62150;43.582;1.456;2023-04-10T13:06:42;100576.06;;;24.32;59.90
73821;BME280;62150;43.582;1.456;2023-04-10T13:09:10;100580.47;;;24.12;63.49
73821;BME280;62150;43.582;1.456;2023-04-10T13:11:38;100586.09;;;23.98;62.64
73821;BME280;62150;43.582;1.456;2023-04-10T13:14:05;100581.59;;;24.19;60.34
73821;BME280;62150;43.582;1.456;2023-04-10T13:16:33;100576.03;;;24.03;61.73
73821;BME280;62150;43.582;1.456;2023-04-10T13:19:00;100579.41;;;24.34;60.24
73821;BME280;62150;43.582;1.456;2023-04-10T13:21:29;100587.09;;;24.06;57.74
73821;BME280;62150;43.582;1.456;2023-04-10T13:23:57;100567.66;;;24.57;57.59
73821;BME280;62150;43.582;1.456;2023-04-10T13:26:24;100582.75;;;23.46;63.40
73821;BME280;62150;43.582;1.456;2023-04-10T13:28:52;100575.19;;;25.55;53.58
73821;BME280;62150;43.582;1.456;2023-04-10T13:31:19;100584.16;;;24.00;60.06
73821;BME280;62150;43.582;1.456;2023-04-10T13:33:47;100570.94;;;24.69;53.65
73821;BME280;62150;43.582;1.456;2023-04-10T13:36:15;100568.97;;;24.03;50.93
73821;BME280;62150;43.582;1.456;2023-04-10T13:38:43;100569.13;;;25.08;49.75
73821;BME280;62150;43.582;1.456;2023-04-10T13:41:11;100565.69;;;24.79;49.31
73821;BME280;62150;43.582;1.456;2023-04-10T13:43:38;100580.94;;;23.77;50.35
73821;BME280;62150;43.582;1.456;2023-04-10T13:46:06;100571.75;;;24.02;45.77
73821;BME280;62150;43.582;1.456;2023-04-10T13:48:34;100564.97;;;23.19;48.55
73821;BME280;62150;43.582;1.456;2023-04-10T13:51:06;100562.94;;;24.70;46.30
73821;BME280;62150;43.582;1.456;2023-04-10T13:53:34;100561.06;;;26.01;43.99
73821;BME280;62150;43.582;1.456;2023-04-10T13:56:03;100562.66;;;24.73;45.55
73821;BME280;62150;43.582;1.456;2023-04-10T13:58:31;100562.16;;;25.26;44.66
73821;BME280;62150;43.582;1.456;2023-04-10T14:00:59;100559.28;;;23.94;46.97
73821;BME280;62150;43.582;1.456;2023-04-10T14:03:27;100559.78;;;24.57;46.51
73821;BME280;62150;43.582;1.456;2023-04-10T14:05:54;100561.97;;;23.64;50.70
73821;BME280;62150;43.582;1.456;2023-04-10T14:08:22;100553.00;;;24.55;48.77
73821;BME280;62150;43.582;1.456;2023-04-10T14:10:49;100543.22;;;25.13;46.56
73821;BME280;62150;43.582;1.456;2023-04-10T14:13:19;100538.25;;;25.75;43.92
73821;BME280;62150;43.582;1.456;2023-04-10T14:15:47;100533.78;;;25.20;44.87
73821;BME280;62150;43.582;1.456;2023-04-10T14:18:17;100539.06;;;25.48;44.34
73821;BME280;62150;43.582;1.456;2023-04-10T14:20:45;100534.56;;;23.87;48.08
73821;BME280;62150;43.582;1.456;2023-04-10T14:23:12;100533.09;;;25.55;45.96
73821;BME280;62150;43.582;1.456;2023-04-10T14:25:43;100525.09;;;25.10;46.88
73821;BME280;62150;43.582;1.456;2023-04-10T14:28:10;100523.72;;;25.70;46.22
73821;BME280;62150;43.582;1.456;2023-04-10T14:30:44;100530.63;;;25.17;46.74
73821;BME280;62150;43.582;1.456;2023-04-10T14:33:11;100516.59;;;25.81;44.92
73821;BME280;62150;43.582;1.456;2023-04-10T14:35:39;100515.44;;;25.38;46.23
73821;BME280;62150;43.582;1.456;2023-04-10T14:38:07;100521.13;;;25.33;44.68
73821;BME280;62150;43.582;1.456;2023-04-10T14:40:34;100507.56;;;25.65;45.37
73821;BME280;62150;43.582;1.456;2023-04-10T14:43:02;100509.09;;;26.21;44.59
73821;BME280;62150;43.582;1.456;2023-04-10T14:45:29;100502.69;;;24.40;48.08
73821;BME280;62150;43.582;1.456;2023-04-10T14:47:59;100504.63;;;24.57;47.66
73821;BME280;62150;43.582;1.456;2023-04-10T14:50:27;100503.31;;;25.55;45.66
73821;BME280;62150;43.582;1.456;2023-04-10T14:52:55;100503.25;;;24.53;45.56
73821;BME280;62150;43.582;1.456;2023-04-10T14:55:24;100506.03;;;24.98;45.73
73821;BME280;62150;43.582;1.456;2023-04-10T14:57:52;100509.03;;;24.28;48.43
73821;BME280;62150;43.582;1.456;2023-04-10T15:00:20;100514.41;;;24.65;47.52
73821;BME280;62150;43.582;1.456;2023-04-10T15:02:49;100499.38;;;24.57;48.12
73821;BME280;62150;43.582;1.456;2023-04-10T15:05:19;100492.31;;;24.48;48.92
73821;BME280;62150;43.582;1.456;2023-04-10T15:07:46;100485.06;;;24.79;47.62
73821;BME280;62150;43.582;1.456;2023-04-10T15:10:13;100498.47;;;24.86;46.85
73821;BME280;62150;43.582;1.456;2023-04-10T15:12:41;100501.13;;;25.23;45.17
73821;BME280;62150;43.582;1.456;2023-04-10T15:15:09;100500.06;;;24.50;47.09
73821;BME280;62150;43.582;1.456;2023-04-10T15:17:37;100502.38;;;24.62;45.17
73821;BME280;62150;43.582;1.456;2023-04-10T15:20:05;100500.00;;;25.53;44.43
73821;BME280;62150;43.582;1.456;2023-04-10T15:22:35;100496.00;;;24.75;45.95
73821;BME280;62150;43.582;1.456;2023-04-10T15:25:03;100490.41;;;24.97;45.97
73821;BME280;62150;43.582;1.456;2023-04-10T15:27:31;100491.00;;;26.62;42.93
73821;BME280;62150;43.582;1.456;2023-04-10T15:29:58;100487.91;;;25.05;44.85
73821;BME280;62150;43.582;1.456;2023-04-10T15:32:25;100496.81;;;25.49;44.96
73821;BME280;62150;43.582;1.456;2023-04-10T15:34:53;100504.44;;;24.68;48.56
73821;BME280;62150;43.582;1.456;2023-04-10T15:37:21;100502.78;;;24.67;48.46
73821;BME280;62150;43.582;1.456;2023-04-10T15:39:52;100510.44;;;25.08;47.64
73821;BME280;62150;43.582;1.456;2023-04-10T15:42:19;100509.19;;;25.12;47.71
73821;BME280;62150;43.582;1.456;2023-04-10T15:44:46;100504.47;;;24.49;46.87
73821;BME280;62150;43.582;1.456;2023-04-10T15:47:14;100507.25;;;25.14;46.52
73821;BME280;62150;43.582;1.456;2023-04-10T15:49:41;100515.53;;;25.19;45.67
73821;BME280;62150;43.582;1.456;2023-04-10T15:52:09;100512.38;;;24.39;50.12
73821;BME280;62150;43.582;1.456;2023-04-10T15:54:38;100507.63;;;24.04;53.45
73821;BME280;62150;43.582;1.456;2023-04-10T15:57:07;100512.13;;;24.99;50.83
73821;BME280;62150;43.582;1.456;2023-04-10T15:59:35;100509.88;;;24.48;51.98
73821;BME280;62150;43.582;1.456;2023-04-10T16:02:02;100528.25;;;24.57;51.34
73821;BME280;62150;43.582;1.456;2023-04-10T16:04:30;100517.34;;;24.33;53.40
73821;BME280;62150;43.582;1.456;2023-04-10T16:06:57;100523.97;;;24.56;53.90
73821;BME280;62150;43.582;1.456;2023-04-10T16:09:25;100525.69;;;25.31;50.17
73821;BME280;62150;43.582;1.456;2023-04-10T16:11:54;100539.69;;;23.98;55.53
73821;BME280;62150;43.582;1.456;2023-04-10T16:14:24;100534.06;;;24.51;55.41
73821;BME280;62150;43.582;1.456;2023-04-10T16:16:51;100548.28;;;23.60;60.52
73821;BME280;62150;43.582;1.456;2023-04-10T16:19:19;100539.63;;;23.69;61.38
73821;BME280;62150;43.582;1.456;2023-04-10T16:21:46;100525.34;;;24.41;56.02
73821;BME280;62150;43.582;1.456;2023-04-10T16:24:14;100532.53;;;24.20;55.56
73821;BME280;62150;43.582;1.456;2023-04-10T16:26:41;100548.94;;;24.02;56.44
73821;BME280;62150;43.582;1.456;2023-04-10T16:29:09;100536.78;;;24.79;52.95
73821;BME280;62150;43.582;1.456;2023-04-10T16:31:38;100531.72;;;24.48;54.22
73821;BME280;62150;43.582;1.456;2023-04-10T16:34:05;100545.25;;;24.15;55.07
73821;BME280;62150;43.582;1.456;2023-04-10T16:36:33;100537.50;;;24.61;52.42
73821;BME280;62150;43.582;1.456;2023-04-10T16:39:00;100538.53;;;23.72;58.16
73821;BME280;62150;43.582;1.456;2023-04-10T16:41:28;100540.53;;;24.09;56.34
73821;BME280;62150;43.582;1.456;2023-04-10T16:43:55;100534.72;;;24.05;55.55
73821;BME280;62150;43.582;1.456;2023-04-10T16:46:26;100539.75;;;24.56;53.30
73821;BME280;62150;43.582;1.456;2023-04-10T16:48:54;100536.94;;;24.10;53.89
73821;BME280;62150;43.582;1.456;2023-04-10T16:51:22;100534.84;;;24.71;53.58
73821;BME280;62150;43.582;1.456;2023-04-10T16:53:50;100546.44;;;24.01;57.60
73821;BME280;62150;43.582;1.456;2023-04-10T16:56:18;100543.81;;;23.91;59.52
73821;BME280;62150;43.582;1.456;2023-04-10T16:58:45;100542.47;;;24.06;59.63
73821;BME280;62150;43.582;1.456;2023-04-10T17:01:17;100543.41;;;23.86;60.25
73821;BME280;62150;43.582;1.456;2023-04-10T17:03:45;100531.69;;;24.67;55.73
73821;BME280;62150;43.582;1.456;2023-04-10T17:06:14;100543.25;;;23.78;61.23
73821;BME280;62150;43.582;1.456;2023-04-10T17:08:42;100539.44;;;24.30;57.81
73821;BME280;62150;43.582;1.456;2023-04-10T17:11:17;100545.91;;;24.75;54.01
73821;BME280;62150;43.582;1.456;2023-04-10T17:13:45;100541.72;;;25.11;53.75
73821;BME280;62150;43.582;1.456;2023-04-10T17:16:15;100550.78;;;24.21;58.98
73821;BME280;62150;43.582;1.456;2023-04-10T17:18:43;100546.59;;;24.09;59.36
73821;BME280;62150;43.582;1.456;2023-04-10T17:21:14;100544.25;;;23.16;67.04
73821;BME280;62150;43.582;1.456;2023-04-10T17:23:42;100554.81;;;23.66;64.49
73821;BME280;62150;43.582;1.456;2023-04-10T17:26:12;100543.13;;;23.89;63.63
73821;BME280;62150;43.582;1.456;2023-04-10T17:28:41;100545.63;;;22.37;74.43
73821;BME280;62150;43.582;1.456;2023-04-10T17:31:10;100546.84;;;23.47;65.39